sensor_id;sensor_type;location;lat;lon;timestamp;P1;durP1;ratioP1;P2;durP2;ratioP2
74908;SDS011;63468;52.058;4.824;2023-04-06T00:00:11;42.53;;;19.17;;
74908;SDS011;63468;52.058;4.824;2023-04-06T00:02:37;37.38;;;18.73;;
74908;SDS011;63468;52.058;4.824;2023-04-06T00:05:02;36.38;;;18.90;;
74908;SDS011;63468;52.058;4.824;2023-04-06T00:07:28;36.47;;;18.10;;
74908;SDS011;63468;52.058;4.824;2023-04-06T00:09:54;38.55;;;18.85;;
74908;SDS011;63468;52.058;4.824;2023-04-06T00:12:19;32.85;;;18.15;;
74908;SDS011;63468;52.058;4.824;2023-04-06T00:14:45;34.20;;;16.15;;
74908;SDS011;63468;52.058;4.824;2023-04-06T00:17:10;27.80;;;16.80;;
74908;SDS011;63468;52.058;4.824;2023-04-06T00:19:36;33.97;;;18.05;;
74908;SDS011;63468;52.058;4.824;2023-04-06T00:22:01;29.70;;;17.23;;
74908;SDS011;63468;52.058;4.824;2023-04-06T00:24:27;39.00;;;16.42;;
74908;SDS011;63468;52.058;4.824;2023-04-06T00:26:52;34.42;;;16.92;;
74908;SDS011;63468;52.058;4.824;2023-04-06T00:29:17;31.23;;;16.75;;
74908;SDS011;63468;52.058;4.824;2023-04-06T00:31:43;30.02;;;17.35;;
74908;SDS011;63468;52.058;4.824;2023-04-06T00:34:09;26.17;;;14.95;;
74908;SDS011;63468;52.058;4.824;2023-04-06T00:36:35;28.23;;;15.77;;
74908;SDS011;63468;52.058;4.824;2023-04-06T00:39:00;30.42;;;15.40;;
74908;SDS011;63468;52.058;4.824;2023-04-06T00:41:25;34.28;;;15.55;;
74908;SDS011;63468;52.058;4.824;2023-04-06T00:43:50;32.45;;;16.25;;
74908;SDS011;63468;52.058;4.824;2023-04-06T00:46:16;26.52;;;14.23;;
74908;SDS011;63468;52.058;4.824;2023-04-06T00:48:41;27.73;;;15.50;;
74908;SDS011;63468;52.058;4.824;2023-04-06T00:51:06;29.52;;;14.45;;
74908;SDS011;63468;52.058;4.824;2023-04-06T00:53:32;27.45;;;16.05;;
74908;SDS011;63468;52.058;4.824;2023-04-06T00:55:57;28.17;;;14.90;;
74908;SDS011;63468;52.058;4.824;2023-04-06T00:58:23;27.90;;;14.95;;
74908;SDS011;63468;52.058;4.824;2023-04-06T01:00:48;29.23;;;15.10;;
74908;SDS011;63468;52.058;4.824;2023-04-06T01:03:14;26.98;;;13.65;;
74908;SDS011;63468;52.058;4.824;2023-04-06T01:05:39;27.30;;;13.82;;
74908;SDS011;63468;52.058;4.824;2023-04-06T01:08:05;25.77;;;14.32;;
74908;SDS011;63468;52.058;4.824;2023-04-06T01:10:31;22.80;;;13.18;;
74908;SDS011;63468;52.058;4.824;2023-04-06T01:12:57;28.85;;;15.63;;
74908;SDS011;63468;52.058;4.824;2023-04-06T01:15:22;24.27;;;12.63;;
74908;SDS011;63468;52.058;4.824;2023-04-06T01:17:48;23.92;;;12.63;;
74908;SDS011;63468;52.058;4.824;2023-04-06T01:20:13;23.83;;;12.70;;
74908;SDS011;63468;52.058;4.824;2023-04-06T01:22:39;25.27;;;14.45;;
74908;SDS011;63468;52.058;4.824;2023-04-06T01:25:05;24.60;;;13.45;;
74908;SDS011;63468;52.058;4.824;2023-04-06T01:27:30;27.50;;;14.35;;
74908;SDS011;63468;52.058;4.824;2023-04-06T01:29:56;22.73;;;13.48;;
74908;SDS011;63468;52.058;4.824;2023-04-06T01:32:21;28.45;;;13.50;;
74908;SDS011;63468;52.058;4.824;2023-04-06T01:34:46;24.77;;;12.88;;
74908;SDS011;63468;52.058;4.824;2023-04-06T01:37:12;29.05;;;14.10;;
74908;SDS011;63468;52.058;4.824;2023-04-06T01:39:37;23.20;;;12.48;;
74908;SDS011;63468;52.058;4.824;2023-04-06T01:42:02;22.67;;;12.73;;
74908;SDS011;63468;52.058;4.824;2023-04-06T01:44:28;28.63;;;13.63;;
74908;SDS011;63468;52.058;4.824;2023-04-06T01:46:55;26.90;;;14.07;;
74908;SDS011;63468;52.058;4.824;2023-04-06T01:49:21;27.10;;;13.55;;
74908;SDS011;63468;52.058;4.824;2023-04-06T01:51:46;22.38;;;12.43;;
74908;SDS011;63468;52.058;4.824;2023-04-06T01:54:12;23.92;;;12.77;;
74908;SDS011;63468;52.058;4.824;2023-04-06T01:56:37;23.00;;;12.15;;
74908;SDS011;63468;52.058;4.824;2023-04-06T01:59:02;22.27;;;12.18;;
74908;SDS011;63468;52.058;4.824;2023-04-06T02:01:28;24.58;;;13.05;;
74908;SDS011;63468;52.058;4.824;2023-04-06T02:03:53;24.48;;;13.15;;
74908;SDS011;63468;52.058;4.824;2023-04-06T02:06:18;26.67;;;13.88;;
74908;SDS011;63468;52.058;4.824;2023-04-06T02:08:44;23.83;;;13.32;;
74908;SDS011;63468;52.058;4.824;2023-04-06T02:11:09;26.02;;;13.35;;
74908;SDS011;63468;52.058;4.824;2023-04-06T02:13:35;25.38;;;12.88;;
74908;SDS011;63468;52.058;4.824;2023-04-06T02:16:00;24.70;;;12.70;;
74908;SDS011;63468;52.058;4.824;2023-04-06T02:18:27;26.77;;;13.32;;
74908;SDS011;63468;52.058;4.824;2023-04-06T02:20:53;25.80;;;12.93;;
74908;SDS011;63468;52.058;4.824;2023-04-06T02:23:18;24.23;;;12.57;;
74908;SDS011;63468;52.058;4.824;2023-04-06T02:25:44;27.45;;;13.82;;
74908;SDS011;63468;52.058;4.824;2023-04-06T02:28:09;25.48;;;13.27;;
74908;SDS011;63468;52.058;4.824;2023-04-06T02:30:34;25.38;;;13.40;;
74908;SDS011;63468;52.058;4.824;2023-04-06T02:33:00;25.50;;;13.38;;
74908;SDS011;63468;52.058;4.824;2023-04-06T02:35:25;25.55;;;13.65;;
74908;SDS011;63468;52.058;4.824;2023-04-06T02:37:52;28.60;;;13.77;;
74908;SDS011;63468;52.058;4.824;2023-04-06T02:40:17;27.42;;;13.38;;
74908;SDS011;63468;52.058;4.824;2023-04-06T02:42:43;21.77;;;13.15;;
74908;SDS011;63468;52.058;4.824;2023-04-06T02:45:08;23.63;;;13.57;;
74908;SDS011;63468;52.058;4.824;2023-04-06T02:47:33;26.38;;;14.63;;
74908;SDS011;63468;52.058;4.824;2023-04-06T02:49:59;25.42;;;14.02;;
74908;SDS011;63468;52.058;4.824;2023-04-06T02:52:24;24.98;;;13.70;;
74908;SDS011;63468;52.058;4.824;2023-04-06T02:54:49;26.05;;;12.98;;
74908;SDS011;63468;52.058;4.824;2023-04-06T02:57:16;24.08;;;13.52;;
74908;SDS011;63468;52.058;4.824;2023-04-06T02:59:41;26.60;;;13.75;;
74908;SDS011;63468;52.058;4.824;2023-04-06T03:02:06;26.10;;;14.60;;
74908;SDS011;63468;52.058;4.824;2023-04-06T03:04:32;26.30;;;13.68;;
74908;SDS011;63468;52.058;4.824;2023-04-06T03:06:57;28.48;;;14.88;;
74908;SDS011;63468;52.058;4.824;2023-04-06T03:09:22;26.63;;;13.90;;
74908;SDS011;63468;52.058;4.824;2023-04-06T03:11:48;28.35;;;14.20;;
74908;SDS011;63468;52.058;4.824;2023-04-06T03:14:13;25.40;;;13.65;;
74908;SDS011;63468;52.058;4.824;2023-04-06T03:16:38;27.92;;;14.02;;
74908;SDS011;63468;52.058;4.824;2023-04-06T03:19:04;30.60;;;14.35;;
74908;SDS011;63468;52.058;4.824;2023-04-06T03:21:29;23.23;;;13.75;;
74908;SDS011;63468;52.058;4.824;2023-04-06T03:23:55;26.45;;;14.68;;
74908;SDS011;63468;52.058;4.824;2023-04-06T03:26:20;27.27;;;13.68;;
74908;SDS011;63468;52.058;4.824;2023-04-06T03:28:47;28.83;;;14.35;;
74908;SDS011;63468;52.058;4.824;2023-04-06T03:31:12;25.67;;;13.30;;
74908;SDS011;63468;52.058;4.824;2023-04-06T03:33:37;29.40;;;15.30;;
74908;SDS011;63468;52.058;4.824;2023-04-06T03:36:03;30.88;;;15.45;;
74908;SDS011;63468;52.058;4.824;2023-04-06T03:38:28;29.05;;;15.45;;
74908;SDS011;63468;52.058;4.824;2023-04-06T03:40:54;28.92;;;14.75;;
74908;SDS011;63468;52.058;4.824;2023-04-06T03:43:19;26.05;;;13.02;;
74908;SDS011;63468;52.058;4.824;2023-04-06T03:45:45;31.45;;;15.32;;
74908;SDS011;63468;52.058;4.824;2023-04-06T03:48:10;28.75;;;14.50;;
74908;SDS011;63468;52.058;4.824;2023-04-06T03:50:35;28.85;;;15.05;;
74908;SDS011;63468;52.058;4.824;2023-04-06T03:53:01;31.90;;;15.25;;
74908;SDS011;63468;52.058;4.824;2023-04-06T03:55:28;31.60;;;15.82;;
74908;SDS011;63468;52.058;4.824;2023-04-06T03:57:53;32.25;;;16.48;;
74908;SDS011;63468;52.058;4.824;2023-04-06T04:00:18;28.90;;;14.23;;
74908;SDS011;63468;52.058;4.824;2023-04-06T04:02:45;30.17;;;15.55;;
74908;SDS011;63468;52.058;4.824;2023-04-06T04:05:10;32.63;;;16.80;;
74908;SDS011;63468;52.058;4.824;2023-04-06T04:07:35;27.58;;;15.20;;
74908;SDS011;63468;52.058;4.824;2023-04-06T04:10:01;30.92;;;15.45;;
74908;SDS011;63468;52.058;4.824;2023-04-06T04:12:26;28.52;;;15.38;;
74908;SDS011;63468;52.058;4.824;2023-04-06T04:14:51;29.40;;;14.23;;
74908;SDS011;63468;52.058;4.824;2023-04-06T04:17:17;30.30;;;16.63;;
74908;SDS011;63468;52.058;4.824;2023-04-06T04:19:42;30.90;;;15.40;;
74908;SDS011;63468;52.058;4.824;2023-04-06T04:22:07;31.67;;;16.38;;
74908;SDS011;63468;52.058;4.824;2023-04-06T04:24:33;30.55;;;15.57;;
74908;SDS011;63468;52.058;4.824;2023-04-06T04:26:58;28.33;;;15.20;;
74908;SDS011;63468;52.058;4.824;2023-04-06T04:29:25;31.15;;;16.23;;
74908;SDS011;63468;52.058;4.824;2023-04-06T04:31:50;36.00;;;15.88;;
74908;SDS011;63468;52.058;4.824;2023-04-06T04:34:17;31.52;;;15.68;;
74908;SDS011;63468;52.058;4.824;2023-04-06T04:36:45;33.22;;;16.35;;
74908;SDS011;63468;52.058;4.824;2023-04-06T04:39:10;35.20;;;15.63;;
74908;SDS011;63468;52.058;4.824;2023-04-06T04:41:35;30.75;;;16.58;;
74908;SDS011;63468;52.058;4.824;2023-04-06T04:44:01;31.40;;;16.58;;
74908;SDS011;63468;52.058;4.824;2023-04-06T04:46:26;29.52;;;15.80;;
74908;SDS011;63468;52.058;4.824;2023-04-06T04:48:51;30.58;;;16.50;;
74908;SDS011;63468;52.058;4.824;2023-04-06T04:51:16;38.95;;;17.75;;
74908;SDS011;63468;52.058;4.824;2023-04-06T04:53:42;31.27;;;16.90;;
74908;SDS011;63468;52.058;4.824;2023-04-06T04:56:07;31.55;;;15.10;;
74908;SDS011;63468;52.058;4.824;2023-04-06T04:58:32;31.42;;;16.17;;
74908;SDS011;63468;52.058;4.824;2023-04-06T05:00:58;29.48;;;15.48;;
74908;SDS011;63468;52.058;4.824;2023-04-06T05:03:24;30.83;;;15.80;;
74908;SDS011;63468;52.058;4.824;2023-04-06T05:05:50;30.42;;;16.05;;
74908;SDS011;63468;52.058;4.824;2023-04-06T05:08:15;31.73;;;16.48;;
74908;SDS011;63468;52.058;4.824;2023-04-06T05:10:41;29.70;;;14.63;;
74908;SDS011;63468;52.058;4.824;2023-04-06T05:13:06;30.63;;;15.85;;
74908;SDS011;63468;52.058;4.824;2023-04-06T05:15:32;31.90;;;16.13;;
74908;SDS011;63468;52.058;4.824;2023-04-06T05:17:59;34.03;;;16.95;;
74908;SDS011;63468;52.058;4.824;2023-04-06T05:20:25;36.25;;;17.77;;
74908;SDS011;63468;52.058;4.824;2023-04-06T05:22:50;29.85;;;16.00;;
74908;SDS011;63468;52.058;4.824;2023-04-06T05:25:15;27.35;;;14.85;;
74908;SDS011;63468;52.058;4.824;2023-04-06T05:27:41;31.70;;;16.45;;
74908;SDS011;63468;52.058;4.824;2023-04-06T05:30:07;29.40;;;15.13;;
74908;SDS011;63468;52.058;4.824;2023-04-06T05:32:32;30.17;;;15.77;;
74908;SDS011;63468;52.058;4.824;2023-04-06T05:34:58;33.90;;;16.50;;
74908;SDS011;63468;52.058;4.824;2023-04-06T05:37:23;35.00;;;17.98;;
74908;SDS011;63468;52.058;4.824;2023-04-06T05:39:48;30.42;;;17.85;;
74908;SDS011;63468;52.058;4.824;2023-04-06T05:42:14;41.05;;;18.63;;
74908;SDS011;63468;52.058;4.824;2023-04-06T05:44:40;32.03;;;16.67;;
74908;SDS011;63468;52.058;4.824;2023-04-06T05:47:05;33.50;;;16.88;;
74908;SDS011;63468;52.058;4.824;2023-04-06T05:49:31;38.88;;;16.15;;
74908;SDS011;63468;52.058;4.824;2023-04-06T05:51:56;31.45;;;17.23;;
74908;SDS011;63468;52.058;4.824;2023-04-06T05:54:21;31.63;;;16.20;;
74908;SDS011;63468;52.058;4.824;2023-04-06T05:56:47;29.73;;;15.43;;
74908;SDS011;63468;52.058;4.824;2023-04-06T05:59:12;31.92;;;17.23;;
74908;SDS011;63468;52.058;4.824;2023-04-06T06:01:37;29.90;;;15.55;;
74908;SDS011;63468;52.058;4.824;2023-04-06T06:04:03;31.92;;;15.88;;
74908;SDS011;63468;52.058;4.824;2023-04-06T06:06:28;31.23;;;15.63;;
74908;SDS011;63468;52.058;4.824;2023-04-06T06:08:57;44.55;;;23.17;;
74908;SDS011;63468;52.058;4.824;2023-04-06T06:11:26;33.42;;;15.90;;
74908;SDS011;63468;52.058;4.824;2023-04-06T06:13:51;35.90;;;17.70;;
74908;SDS011;63468;52.058;4.824;2023-04-06T06:16:17;27.52;;;16.40;;
74908;SDS011;63468;52.058;4.824;2023-04-06T06:18:43;35.85;;;16.88;;
74908;SDS011;63468;52.058;4.824;2023-04-06T06:21:08;32.42;;;16.40;;
74908;SDS011;63468;52.058;4.824;2023-04-06T06:23:34;32.80;;;18.10;;
74908;SDS011;63468;52.058;4.824;2023-04-06T06:25:59;33.33;;;16.88;;
74908;SDS011;63468;52.058;4.824;2023-04-06T06:28:25;32.28;;;16.77;;
74908;SDS011;63468;52.058;4.824;2023-04-06T06:30:51;34.65;;;17.00;;
74908;SDS011;63468;52.058;4.824;2023-04-06T06:33:16;32.78;;;16.83;;
74908;SDS011;63468;52.058;4.824;2023-04-06T06:35:41;30.55;;;16.13;;
74908;SDS011;63468;52.058;4.824;2023-04-06T06:38:07;31.05;;;17.15;;
74908;SDS011;63468;52.058;4.824;2023-04-06T06:40:33;31.13;;;17.15;;
74908;SDS011;63468;52.058;4.824;2023-04-06T06:42:58;33.28;;;18.35;;
74908;SDS011;63468;52.058;4.824;2023-04-06T06:45:23;29.23;;;15.93;;
74908;SDS011;63468;52.058;4.824;2023-04-06T06:47:50;28.77;;;15.52;;
74908;SDS011;63468;52.058;4.824;2023-04-06T06:50:15;29.42;;;15.10;;
74908;SDS011;63468;52.058;4.824;2023-04-06T06:52:41;36.60;;;17.02;;
74908;SDS011;63468;52.058;4.824;2023-04-06T06:55:07;32.92;;;17.98;;
74908;SDS011;63468;52.058;4.824;2023-04-06T06:57:33;34.42;;;16.80;;
74908;SDS011;63468;52.058;4.824;2023-04-06T06:59:58;30.50;;;18.02;;
74908;SDS011;63468;52.058;4.824;2023-04-06T07:02:24;30.30;;;16.55;;
74908;SDS011;63468;52.058;4.824;2023-04-06T07:04:50;33.22;;;17.30;;
74908;SDS011;63468;52.058;4.824;2023-04-06T07:07:15;35.63;;;17.17;;
74908;SDS011;63468;52.058;4.824;2023-04-06T07:09:41;35.38;;;18.05;;
74908;SDS011;63468;52.058;4.824;2023-04-06T07:12:06;30.45;;;16.67;;
74908;SDS011;63468;52.058;4.824;2023-04-06T07:14:31;33.50;;;18.02;;
74908;SDS011;63468;52.058;4.824;2023-04-06T07:16:57;36.65;;;16.67;;
74908;SDS011;63468;52.058;4.824;2023-04-06T07:19:22;30.23;;;17.67;;
74908;SDS011;63468;52.058;4.824;2023-04-06T07:21:47;33.22;;;17.75;;
74908;SDS011;63468;52.058;4.824;2023-04-06T07:24:14;32.60;;;17.80;;
74908;SDS011;63468;52.058;4.824;2023-04-06T07:26:40;33.45;;;17.33;;
74908;SDS011;63468;52.058;4.824;2023-04-06T07:29:05;37.35;;;20.27;;
74908;SDS011;63468;52.058;4.824;2023-04-06T07:31:30;32.75;;;18.67;;
74908;SDS011;63468;52.058;4.824;2023-04-06T07:33:56;32.22;;;18.17;;
74908;SDS011;63468;52.058;4.824;2023-04-06T07:36:21;37.20;;;19.00;;
74908;SDS011;63468;52.058;4.824;2023-04-06T07:38:47;31.85;;;18.20;;
74908;SDS011;63468;52.058;4.824;2023-04-06T07:41:12;32.38;;;18.50;;
74908;SDS011;63468;52.058;4.824;2023-04-06T07:43:38;32.47;;;18.10;;
74908;SDS011;63468;52.058;4.824;2023-04-06T07:46:03;31.35;;;17.52;;
74908;SDS011;63468;52.058;4.824;2023-04-06T07:48:29;33.88;;;18.80;;
74908;SDS011;63468;52.058;4.824;2023-04-06T07:51:00;33.92;;;18.35;;
74908;SDS011;63468;52.058;4.824;2023-04-06T07:53:27;38.00;;;19.95;;
74908;SDS011;63468;52.058;4.824;2023-04-06T07:55:52;34.92;;;19.95;;
74908;SDS011;63468;52.058;4.824;2023-04-06T07:58:18;34.33;;;20.10;;
74908;SDS011;63468;52.058;4.824;2023-04-06T08:00:43;32.03;;;18.13;;
74908;SDS011;63468;52.058;4.824;2023-04-06T08:03:09;33.03;;;18.63;;
74908;SDS011;63468;52.058;4.824;2023-04-06T08:05:34;33.55;;;19.17;;
74908;SDS011;63468;52.058;4.824;2023-04-06T08:07:59;34.33;;;19.17;;
74908;SDS011;63468;52.058;4.824;2023-04-06T08:10:25;38.97;;;18.60;;
74908;SDS011;63468;52.058;4.824;2023-04-06T08:12:50;57.42;;;31.15;;
74908;SDS011;63468;52.058;4.824;2023-04-06T08:15:15;51.85;;;27.90;;
74908;SDS011;63468;52.058;4.824;2023-04-06T08:17:43;58.88;;;34.05;;
74908;SDS011;63468;52.058;4.824;2023-04-06T08:20:08;50.53;;;27.42;;
74908;SDS011;63468;52.058;4.824;2023-04-06T08:22:35;44.38;;;25.45;;
74908;SDS011;63468;52.058;4.824;2023-04-06T08:25:01;40.22;;;22.48;;
74908;SDS011;63468;52.058;4.824;2023-04-06T08:27:26;38.35;;;22.10;;
74908;SDS011;63468;52.058;4.824;2023-04-06T08:29:51;41.25;;;21.52;;
74908;SDS011;63468;52.058;4.824;2023-04-06T08:32:17;36.47;;;21.77;;
74908;SDS011;63468;52.058;4.824;2023-04-06T08:34:42;42.30;;;22.10;;
74908;SDS011;63468;52.058;4.824;2023-04-06T08:37:07;40.95;;;22.00;;
74908;SDS011;63468;52.058;4.824;2023-04-06T08:39:33;42.28;;;23.08;;
74908;SDS011;63468;52.058;4.824;2023-04-06T08:41:59;39.88;;;21.67;;
74908;SDS011;63468;52.058;4.824;2023-04-06T08:44:27;42.03;;;23.08;;
74908;SDS011;63468;52.058;4.824;2023-04-06T08:46:53;43.58;;;23.23;;
74908;SDS011;63468;52.058;4.824;2023-04-06T08:49:19;37.90;;;21.92;;
74908;SDS011;63468;52.058;4.824;2023-04-06T08:51:45;41.10;;;24.38;;
74908;SDS011;63468;52.058;4.824;2023-04-06T08:54:11;41.13;;;23.50;;
74908;SDS011;63468;52.058;4.824;2023-04-06T08:56:37;38.78;;;22.08;;
74908;SDS011;63468;52.058;4.824;2023-04-06T08:59:03;43.78;;;22.27;;
74908;SDS011;63468;52.058;4.824;2023-04-06T09:01:30;37.42;;;23.63;;
74908;SDS011;63468;52.058;4.824;2023-04-06T09:03:56;47.60;;;25.15;;
74908;SDS011;63468;52.058;4.824;2023-04-06T09:06:22;48.10;;;24.63;;
74908;SDS011;63468;52.058;4.824;2023-04-06T09:08:48;46.47;;;25.52;;
74908;SDS011;63468;52.058;4.824;2023-04-06T09:11:14;42.72;;;24.55;;
74908;SDS011;63468;52.058;4.824;2023-04-06T09:13:46;48.25;;;26.48;;
74908;SDS011;63468;52.058;4.824;2023-04-06T09:16:16;43.03;;;24.42;;
74908;SDS011;63468;52.058;4.824;2023-04-06T09:18:42;44.67;;;25.42;;
74908;SDS011;63468;52.058;4.824;2023-04-06T09:21:08;40.03;;;24.20;;
74908;SDS011;63468;52.058;4.824;2023-04-06T09:23:34;46.15;;;23.83;;
74908;SDS011;63468;52.058;4.824;2023-04-06T09:26:10;45.70;;;25.08;;
74908;SDS011;63468;52.058;4.824;2023-04-06T09:31:16;34.20;;;20.92;;
74908;SDS011;63468;52.058;4.824;2023-04-06T09:33:46;40.40;;;21.02;;
74908;SDS011;63468;52.058;4.824;2023-04-06T09:36:11;36.17;;;20.30;;
74908;SDS011;63468;52.058;4.824;2023-04-06T09:38:51;36.65;;;20.23;;
74908;SDS011;63468;52.058;4.824;2023-04-06T09:41:21;36.33;;;19.45;;
74908;SDS011;63468;52.058;4.824;2023-04-06T09:43:47;33.45;;;18.52;;
74908;SDS011;63468;52.058;4.824;2023-04-06T09:46:12;33.67;;;19.10;;
74908;SDS011;63468;52.058;4.824;2023-04-06T09:48:38;32.53;;;17.80;;
74908;SDS011;63468;52.058;4.824;2023-04-06T09:51:04;30.08;;;16.80;;
74908;SDS011;63468;52.058;4.824;2023-04-06T09:53:31;28.02;;;16.95;;
74908;SDS011;63468;52.058;4.824;2023-04-06T09:55:57;31.40;;;19.00;;
74908;SDS011;63468;52.058;4.824;2023-04-06T09:58:23;24.05;;;15.27;;
74908;SDS011;63468;52.058;4.824;2023-04-06T10:00:58;24.50;;;14.70;;
74908;SDS011;63468;52.058;4.824;2023-04-06T10:03:31;26.85;;;16.50;;
74908;SDS011;63468;52.058;4.824;2023-04-06T10:06:04;27.55;;;15.52;;
74908;SDS011;63468;52.058;4.824;2023-04-06T10:08:31;26.13;;;14.75;;
74908;SDS011;63468;52.058;4.824;2023-04-06T10:10:57;29.63;;;16.23;;
74908;SDS011;63468;52.058;4.824;2023-04-06T10:13:23;29.13;;;16.38;;
74908;SDS011;63468;52.058;4.824;2023-04-06T10:15:49;16.33;;;10.23;;
74908;SDS011;63468;52.058;4.824;2023-04-06T10:18:15;17.45;;;10.52;;
74908;SDS011;63468;52.058;4.824;2023-04-06T10:20:42;15.40;;;9.00;;
74908;SDS011;63468;52.058;4.824;2023-04-06T10:23:12;16.10;;;9.52;;
74908;SDS011;63468;52.058;4.824;2023-04-06T10:25:52;13.75;;;8.82;;
74908;SDS011;63468;52.058;4.824;2023-04-06T10:28:20;15.80;;;10.00;;
74908;SDS011;63468;52.058;4.824;2023-04-06T10:30:46;16.05;;;9.90;;
74908;SDS011;63468;52.058;4.824;2023-04-06T10:33:14;15.77;;;9.95;;
74908;SDS011;63468;52.058;4.824;2023-04-06T10:35:43;16.73;;;10.90;;
74908;SDS011;63468;52.058;4.824;2023-04-06T10:38:09;16.50;;;10.70;;
74908;SDS011;63468;52.058;4.824;2023-04-06T10:40:37;20.55;;;10.93;;
74908;SDS011;63468;52.058;4.824;2023-04-06T10:43:07;20.20;;;11.00;;
74908;SDS011;63468;52.058;4.824;2023-04-06T10:45:36;21.70;;;12.88;;
74908;SDS011;63468;52.058;4.824;2023-04-06T10:48:12;20.00;;;11.68;;
74908;SDS011;63468;52.058;4.824;2023-04-06T10:50:39;19.20;;;12.73;;
74908;SDS011;63468;52.058;4.824;2023-04-06T10:53:05;21.35;;;13.95;;
74908;SDS011;63468;52.058;4.824;2023-04-06T10:55:31;19.23;;;12.20;;
74908;SDS011;63468;52.058;4.824;2023-04-06T10:57:56;18.80;;;12.50;;
74908;SDS011;63468;52.058;4.824;2023-04-06T11:00:22;20.90;;;13.20;;
74908;SDS011;63468;52.058;4.824;2023-04-06T11:02:48;18.27;;;12.13;;
74908;SDS011;63468;52.058;4.824;2023-04-06T11:05:14;17.40;;;12.35;;
74908;SDS011;63468;52.058;4.824;2023-04-06T11:07:39;20.83;;;12.77;;
74908;SDS011;63468;52.058;4.824;2023-04-06T11:10:05;22.27;;;14.07;;
74908;SDS011;63468;52.058;4.824;2023-04-06T11:12:31;21.88;;;13.02;;
74908;SDS011;63468;52.058;4.824;2023-04-06T11:14:58;19.50;;;12.85;;
74908;SDS011;63468;52.058;4.824;2023-04-06T11:17:31;22.35;;;14.05;;
74908;SDS011;63468;52.058;4.824;2023-04-06T11:19:58;21.50;;;13.30;;
74908;SDS011;63468;52.058;4.824;2023-04-06T11:22:24;23.05;;;14.65;;
74908;SDS011;63468;52.058;4.824;2023-04-06T11:24:49;20.83;;;13.90;;
74908;SDS011;63468;52.058;4.824;2023-04-06T11:27:15;22.00;;;14.93;;
74908;SDS011;63468;52.058;4.824;2023-04-06T11:29:41;21.77;;;13.18;;
74908;SDS011;63468;52.058;4.824;2023-04-06T11:32:06;22.38;;;14.52;;
74908;SDS011;63468;52.058;4.824;2023-04-06T11:34:34;19.70;;;13.52;;
74908;SDS011;63468;52.058;4.824;2023-04-06T11:37:02;23.75;;;12.93;;
74908;SDS011;63468;52.058;4.824;2023-04-06T11:39:31;21.30;;;16.60;;
74908;SDS011;63468;52.058;4.824;2023-04-06T11:41:58;19.90;;;15.88;;
74908;SDS011;63468;52.058;4.824;2023-04-06T11:44:34;20.48;;;15.80;;
74908;SDS011;63468;52.058;4.824;2023-04-06T11:47:05;22.42;;;16.88;;
74908;SDS011;63468;52.058;4.824;2023-04-06T11:49:33;22.52;;;18.77;;
74908;SDS011;63468;52.058;4.824;2023-04-06T11:51:59;22.85;;;17.35;;
74908;SDS011;63468;52.058;4.824;2023-04-06T11:54:32;24.15;;;21.67;;
74908;SDS011;63468;52.058;4.824;2023-04-06T11:57:02;21.80;;;19.40;;
74908;SDS011;63468;52.058;4.824;2023-04-06T11:59:28;24.08;;;19.60;;
74908;SDS011;63468;52.058;4.824;2023-04-06T12:01:53;26.15;;;19.40;;
74908;SDS011;63468;52.058;4.824;2023-04-06T12:04:19;24.80;;;22.10;;
74908;SDS011;63468;52.058;4.824;2023-04-06T12:06:45;25.50;;;22.90;;
74908;SDS011;63468;52.058;4.824;2023-04-06T12:09:10;29.98;;;23.38;;
74908;SDS011;63468;52.058;4.824;2023-04-06T12:11:36;26.13;;;23.33;;
74908;SDS011;63468;52.058;4.824;2023-04-06T12:14:01;25.27;;;22.63;;
74908;SDS011;63468;52.058;4.824;2023-04-06T12:16:29;24.10;;;21.25;;
74908;SDS011;63468;52.058;4.824;2023-04-06T12:18:55;28.02;;;23.52;;
74908;SDS011;63468;52.058;4.824;2023-04-06T12:21:20;28.42;;;21.88;;
74908;SDS011;63468;52.058;4.824;2023-04-06T12:23:46;26.83;;;22.35;;
74908;SDS011;63468;52.058;4.824;2023-04-06T12:26:11;24.77;;;22.27;;
74908;SDS011;63468;52.058;4.824;2023-04-06T12:28:36;29.48;;;25.33;;
74908;SDS011;63468;52.058;4.824;2023-04-06T12:31:02;26.70;;;23.17;;
74908;SDS011;63468;52.058;4.824;2023-04-06T12:33:27;25.73;;;20.88;;
74908;SDS011;63468;52.058;4.824;2023-04-06T12:35:52;25.52;;;22.80;;
74908;SDS011;63468;52.058;4.824;2023-04-06T12:38:18;23.50;;;20.88;;
74908;SDS011;63468;52.058;4.824;2023-04-06T12:40:43;23.58;;;18.02;;
74908;SDS011;63468;52.058;4.824;2023-04-06T12:43:08;26.63;;;21.40;;
74908;SDS011;63468;52.058;4.824;2023-04-06T12:45:34;25.63;;;20.50;;
74908;SDS011;63468;52.058;4.824;2023-04-06T12:47:59;27.75;;;23.25;;
74908;SDS011;63468;52.058;4.824;2023-04-06T12:50:24;29.35;;;20.25;;
74908;SDS011;63468;52.058;4.824;2023-04-06T12:52:51;29.05;;;21.15;;
74908;SDS011;63468;52.058;4.824;2023-04-06T12:55:16;28.80;;;20.67;;
74908;SDS011;63468;52.058;4.824;2023-04-06T12:57:42;27.88;;;23.27;;
74908;SDS011;63468;52.058;4.824;2023-04-06T13:00:07;27.48;;;21.88;;
74908;SDS011;63468;52.058;4.824;2023-04-06T13:02:33;31.75;;;26.00;;
74908;SDS011;63468;52.058;4.824;2023-04-06T13:04:58;30.33;;;23.17;;
74908;SDS011;63468;52.058;4.824;2023-04-06T13:07:24;27.65;;;22.95;;
74908;SDS011;63468;52.058;4.824;2023-04-06T13:09:51;27.98;;;24.25;;
74908;SDS011;63468;52.058;4.824;2023-04-06T13:12:16;36.75;;;24.50;;
74908;SDS011;63468;52.058;4.824;2023-04-06T13:14:42;28.52;;;23.23;;
74908;SDS011;63468;52.058;4.824;2023-04-06T13:17:07;28.13;;;22.63;;
74908;SDS011;63468;52.058;4.824;2023-04-06T13:19:33;31.45;;;23.35;;
74908;SDS011;63468;52.058;4.824;2023-04-06T13:21:58;32.53;;;22.95;;
74908;SDS011;63468;52.058;4.824;2023-04-06T13:24:23;35.92;;;25.95;;
74908;SDS011;63468;52.058;4.824;2023-04-06T13:26:49;33.38;;;28.98;;
74908;SDS011;63468;52.058;4.824;2023-04-06T13:29:14;34.67;;;26.13;;
74908;SDS011;63468;52.058;4.824;2023-04-06T13:31:40;32.08;;;28.55;;
74908;SDS011;63468;52.058;4.824;2023-04-06T13:34:05;38.85;;;33.17;;
74908;SDS011;63468;52.058;4.824;2023-04-06T13:36:31;33.60;;;27.08;;
74908;SDS011;63468;52.058;4.824;2023-04-06T13:38:57;31.08;;;23.70;;
74908;SDS011;63468;52.058;4.824;2023-04-06T13:41:24;35.35;;;31.63;;
74908;SDS011;63468;52.058;4.824;2023-04-06T13:43:50;33.65;;;26.73;;
74908;SDS011;63468;52.058;4.824;2023-04-06T13:46:16;30.20;;;24.90;;
74908;SDS011;63468;52.058;4.824;2023-04-06T13:48:42;30.88;;;27.58;;
74908;SDS011;63468;52.058;4.824;2023-04-06T13:51:08;31.02;;;27.65;;
74908;SDS011;63468;52.058;4.824;2023-04-06T13:53:37;30.40;;;26.52;;
74908;SDS011;63468;52.058;4.824;2023-04-06T13:56:03;33.70;;;28.05;;
74908;SDS011;63468;52.058;4.824;2023-04-06T13:58:28;32.78;;;28.63;;
74908;SDS011;63468;52.058;4.824;2023-04-06T14:00:54;31.80;;;25.95;;
74908;SDS011;63468;52.058;4.824;2023-04-06T14:03:19;27.73;;;24.70;;
74908;SDS011;63468;52.058;4.824;2023-04-06T14:05:45;37.13;;;29.95;;
74908;SDS011;63468;52.058;4.824;2023-04-06T14:08:11;33.10;;;24.70;;
74908;SDS011;63468;52.058;4.824;2023-04-06T14:10:37;32.13;;;23.50;;
74908;SDS011;63468;52.058;4.824;2023-04-06T14:13:06;34.83;;;26.13;;
74908;SDS011;63468;52.058;4.824;2023-04-06T14:15:31;30.63;;;24.80;;